createdAt,value
2019-02-19T00:01:09.289Z,11.07
2019-02-19T00:03:39.892Z,8.93
2019-02-19T00:06:10.817Z,7.17
2019-02-19T00:08:41.101Z,8.40
2019-02-19T00:11:11.324Z,10.37
2019-02-19T00:13:41.614Z,7.60
2019-02-19T00:16:11.963Z,6.87
2019-02-19T00:18:42.346Z,8.13
2019-02-19T00:21:12.723Z,9.53
2019-02-19T00:23:43.445Z,7.80
2019-02-19T00:26:18.008Z,7.60
2019-02-19T00:28:48.979Z,8.70
2019-02-19T00:31:19.152Z,10.33
2019-02-19T00:33:49.388Z,8.60
2019-02-19T00:36:19.541Z,9.33
2019-02-19T00:38:49.769Z,8.67
2019-02-19T00:41:20.294Z,8.30
2019-02-19T00:43:50.562Z,9.87
2019-02-19T00:46:21.402Z,10.63
2019-02-19T00:48:51.644Z,9.57
2019-02-19T00:51:22.694Z,7.97
2019-02-19T00:53:52.964Z,9.47
2019-02-19T00:56:23.491Z,7.97
2019-02-19T00:58:54.212Z,10.03
2019-02-19T01:01:26.850Z,10.87
2019-02-19T01:03:57.076Z,11.73
2019-02-19T01:06:27.587Z,10.30
2019-02-19T01:08:57.868Z,11.53
2019-02-19T01:11:28.999Z,10.53
2019-02-19T01:13:59.628Z,12.03
2019-02-19T01:16:29.892Z,9.83
2019-02-19T01:19:00.466Z,9.10
2019-02-19T01:21:30.703Z,10.67
2019-02-19T01:24:01.354Z,10.53
2019-02-19T01:26:31.785Z,9.93
2019-02-19T01:29:02.079Z,9.73
2019-02-19T01:31:34.537Z,10.67
2019-02-19T01:34:04.912Z,9.03
2019-02-19T01:36:35.226Z,10.37
2019-02-19T01:39:05.849Z,11.00
2019-02-19T01:41:36.065Z,10.13
2019-02-19T01:44:06.315Z,11.47
2019-02-19T01:46:37.576Z,8.90
2019-02-19T01:49:07.781Z,11.77
2019-02-19T01:51:38.301Z,9.40
2019-02-19T01:54:08.895Z,12.87
2019-02-19T01:56:39.107Z,10.00
2019-02-19T01:59:09.321Z,8.60
2019-02-19T02:01:39.564Z,11.13
2019-02-19T02:04:09.793Z,13.13
2019-02-19T02:06:40.029Z,11.43
2019-02-19T02:09:10.209Z,10.47
2019-02-19T02:11:40.521Z,13.67
2019-02-19T02:14:10.745Z,10.53
2019-02-19T02:16:41.339Z,9.77
2019-02-19T02:19:11.585Z,14.77
2019-02-19T02:21:41.919Z,10.97
2019-02-19T02:24:12.173Z,10.60
2019-02-19T02:26:42.445Z,10.30
2019-02-19T02:29:13.089Z,10.83
2019-02-19T02:31:43.739Z,10.83
2019-02-19T02:34:14.131Z,8.20
2019-02-19T02:36:46.304Z,7.90
2019-02-19T02:39:16.898Z,12.60
2019-02-19T02:41:47.568Z,9.80
2019-02-19T02:44:18.174Z,9.73
2019-02-19T02:46:48.715Z,10.47
2019-02-19T02:49:19.254Z,10.67
2019-02-19T02:51:50.023Z,9.07
2019-02-19T02:54:20.186Z,12.73
2019-02-19T02:56:50.485Z,8.37
2019-02-19T02:59:21.040Z,12.47
2019-02-19T03:01:51.328Z,14.67
2019-02-19T03:04:21.784Z,11.53
2019-02-19T03:07:06.164Z,9.77
2019-02-19T03:09:36.615Z,13.37
2019-02-19T03:12:06.802Z,11.43
2019-02-19T03:14:37.074Z,13.10
2019-02-19T03:17:07.337Z,17.00
2019-02-19T03:19:38.271Z,13.40
2019-02-19T03:22:08.484Z,13.13
2019-02-19T03:24:39.491Z,12.10
2019-02-19T03:27:09.717Z,11.80
2019-02-19T03:29:40.260Z,10.30
2019-02-19T03:32:10.759Z,10.70
2019-02-19T03:34:41.061Z,13.60
2019-02-19T03:37:11.324Z,12.97
2019-02-19T03:39:41.881Z,14.70
2019-02-19T03:42:12.108Z,16.40
2019-02-19T03:44:42.719Z,15.40
2019-02-19T03:47:13.359Z,13.67
2019-02-19T03:49:43.891Z,16.23
2019-02-19T03:52:14.275Z,20.47
2019-02-19T03:54:46.145Z,16.27
2019-02-19T03:57:18.057Z,14.10
2019-02-19T03:59:48.293Z,13.50
2019-02-19T04:02:18.555Z,16.43
2019-02-19T04:04:49.236Z,15.80
2019-02-19T04:07:19.483Z,19.83
2019-02-19T04:09:51.332Z,14.90
2019-02-19T04:12:21.876Z,17.63
2019-02-19T04:14:52.426Z,15.97
2019-02-19T04:17:22.695Z,16.53
2019-02-19T04:19:53.293Z,16.30
2019-02-19T04:22:23.545Z,17.63
2019-02-19T04:24:54.093Z,16.20
2019-02-19T04:27:24.327Z,15.60
2019-02-19T04:29:54.690Z,16.37
2019-02-19T04:32:24.929Z,16.13
2019-02-19T04:34:55.153Z,12.43
2019-02-19T04:37:26.573Z,17.10
2019-02-19T04:39:56.915Z,14.50
2019-02-19T04:42:27.096Z,16.80
2019-02-19T04:44:57.362Z,14.57
2019-02-19T04:47:27.901Z,21.90
2019-02-19T04:49:58.108Z,16.00
2019-02-19T04:52:28.334Z,21.27
2019-02-19T04:54:58.573Z,18.33
2019-02-19T04:57:28.828Z,14.50
2019-02-19T04:59:59.068Z,19.60
2019-02-19T05:02:29.616Z,16.83
2019-02-19T05:04:59.787Z,16.27
2019-02-19T05:07:30.344Z,18.43
2019-02-19T05:10:00.939Z,17.33
2019-02-19T05:12:31.192Z,16.17
2019-02-19T05:15:01.376Z,17.63
2019-02-19T05:17:31.591Z,15.77
2019-02-19T05:20:03.818Z,19.47
2019-02-19T05:22:34.344Z,26.40
2019-02-19T05:25:05.111Z,20.23
2019-02-19T05:27:35.321Z,22.30
2019-02-19T05:30:06.090Z,21.60
2019-02-19T05:32:36.802Z,20.50
2019-02-19T05:35:07.847Z,20.77
2019-02-19T05:37:38.341Z,23.53
2019-02-19T05:40:08.598Z,17.50
2019-02-19T05:42:39.240Z,21.83
2019-02-19T05:45:09.769Z,19.20
2019-02-19T05:47:40.661Z,20.30
2019-02-19T05:50:10.851Z,23.83
2019-02-19T05:52:41.162Z,17.17
2019-02-19T05:55:11.436Z,17.00
2019-02-19T05:57:41.714Z,17.33
2019-02-19T06:00:13.753Z,18.87
2019-02-19T06:02:44.403Z,18.97
2019-02-19T06:05:14.969Z,15.63
2019-02-19T06:07:45.387Z,17.60
2019-02-19T06:10:15.917Z,15.93
2019-02-19T06:12:46.159Z,15.93
2019-02-19T06:15:16.373Z,16.83
2019-02-19T06:17:47.305Z,15.67
2019-02-19T06:20:18.058Z,18.40
2019-02-19T06:22:48.739Z,16.10
2019-02-19T06:25:19.279Z,18.90
2019-02-19T06:27:49.664Z,15.63
2019-02-19T06:30:19.973Z,20.87
2019-02-19T06:32:50.287Z,13.03
2019-02-19T06:35:20.673Z,14.80
2019-02-19T06:37:54.443Z,19.57
2019-02-19T06:40:28.850Z,17.77
2019-02-19T06:43:00.031Z,13.27
2019-02-19T06:45:31.073Z,16.23
2019-02-19T06:48:02.174Z,18.20
2019-02-19T06:50:33.272Z,14.07
2019-02-19T06:53:03.625Z,15.63
2019-02-19T06:55:34.080Z,20.03
2019-02-19T06:58:07.366Z,17.77
2019-02-19T07:00:38.926Z,15.73
2019-02-19T07:03:24.310Z,18.23
2019-02-19T07:05:54.570Z,17.13
2019-02-19T07:08:25.337Z,18.60
2019-02-19T07:10:56.048Z,18.53
2019-02-19T07:13:26.918Z,19.90
2019-02-19T07:15:57.212Z,16.23
2019-02-19T07:18:27.860Z,18.80
2019-02-19T07:20:58.510Z,17.50
2019-02-19T07:23:28.770Z,15.17
2019-02-19T07:26:05.532Z,16.23
2019-02-19T07:28:37.102Z,17.57
2019-02-19T07:31:07.413Z,18.77
2019-02-19T07:33:38.048Z,14.40
2019-02-19T07:36:08.620Z,15.93
2019-02-19T07:38:39.125Z,16.53
2019-02-19T07:41:09.309Z,14.53
2019-02-19T07:43:39.636Z,16.27
2019-02-19T07:46:10.037Z,13.60
2019-02-19T07:48:40.270Z,14.17
2019-02-19T07:51:10.924Z,21.43
2019-02-19T07:53:41.194Z,15.93
2019-02-19T07:56:11.494Z,15.87
2019-02-19T07:58:42.195Z,14.83
2019-02-19T08:01:12.557Z,16.27
2019-02-19T08:03:43.000Z,15.03
2019-02-19T08:06:14.686Z,19.23
2019-02-19T08:08:45.114Z,16.23
2019-02-19T08:11:15.452Z,17.87
2019-02-19T08:13:45.756Z,17.03
2019-02-19T08:16:16.118Z,20.17
2019-02-19T08:18:46.826Z,15.53
2019-02-19T08:21:17.535Z,16.97
2019-02-19T08:23:48.172Z,20.33
2019-02-19T08:26:18.761Z,23.97
2019-02-19T08:28:49.167Z,18.57
2019-02-19T08:31:20.530Z,21.20
2019-02-19T08:33:50.894Z,16.47
2019-02-19T08:36:21.223Z,18.90
2019-02-19T08:38:51.964Z,26.70
2019-02-19T08:41:22.773Z,20.97
2019-02-19T08:43:53.791Z,14.47
2019-02-19T08:46:24.457Z,15.00
2019-02-19T08:48:55.090Z,20.43
2019-02-19T08:51:25.417Z,19.33
2019-02-19T08:53:55.783Z,17.13
2019-02-19T08:56:26.083Z,16.53
2019-02-19T08:58:56.745Z,14.87
2019-02-19T09:01:27.493Z,19.37
2019-02-19T09:03:58.158Z,17.53
2019-02-19T09:06:28.560Z,17.10
2019-02-19T09:08:59.173Z,21.87
2019-02-19T09:11:29.478Z,15.60
2019-02-19T09:13:59.774Z,20.13
2019-02-19T09:16:30.611Z,16.97
2019-02-19T09:19:00.959Z,19.07
2019-02-19T09:21:31.358Z,20.60
2019-02-19T09:24:09.234Z,17.30
2019-02-19T09:26:36.923Z,18.40
2019-02-19T09:29:07.569Z,16.77
2019-02-19T09:31:38.246Z,12.83
2019-02-19T09:34:11.596Z,16.03
2019-02-19T09:36:41.842Z,16.47
2019-02-19T09:39:12.316Z,19.70
2019-02-19T09:41:43.149Z,16.63
2019-02-19T09:44:13.857Z,13.30
2019-02-19T09:46:44.543Z,15.63
2019-02-19T09:49:14.896Z,13.83
2019-02-19T09:51:45.550Z,14.67
2019-02-19T09:54:15.878Z,13.30
2019-02-19T09:56:46.561Z,12.10
2019-02-19T09:59:17.686Z,11.80
2019-02-19T10:01:48.382Z,16.50
2019-02-19T10:04:19.115Z,16.30
2019-02-19T10:06:49.500Z,11.97
2019-02-19T10:09:19.902Z,15.93
2019-02-19T10:11:50.244Z,14.17
2019-02-19T10:14:20.669Z,12.90
2019-02-19T10:16:51.166Z,13.87
2019-02-19T10:19:21.490Z,16.00
2019-02-19T10:21:51.838Z,14.33
2019-02-19T10:24:22.365Z,16.83
2019-02-19T10:26:52.972Z,12.57
2019-02-19T10:29:23.946Z,14.03
2019-02-19T10:31:54.281Z,15.73
2019-02-19T10:34:24.778Z,13.93
2019-02-19T10:36:56.100Z,15.73
2019-02-19T10:39:27.090Z,13.33
2019-02-19T10:41:57.742Z,14.23
2019-02-19T10:44:28.519Z,13.10
2019-02-19T10:46:58.777Z,11.53
2019-02-19T10:49:29.562Z,14.37
2019-02-19T10:52:00.369Z,14.27
2019-02-19T10:54:31.159Z,13.87
2019-02-19T10:57:01.515Z,14.27
2019-02-19T10:59:32.256Z,14.53
2019-02-19T11:02:02.545Z,19.10
2019-02-19T11:04:32.893Z,15.20
2019-02-19T11:07:03.271Z,10.67
2019-02-19T11:09:33.908Z,16.13
2019-02-19T11:12:04.261Z,12.13
2019-02-19T11:14:37.625Z,15.37
2019-02-19T11:17:07.900Z,13.83
2019-02-19T11:19:38.320Z,10.73
2019-02-19T11:22:08.976Z,9.13
2019-02-19T11:24:39.370Z,12.93
2019-02-19T11:27:09.663Z,11.20
2019-02-19T11:29:40.386Z,9.87
2019-02-19T11:32:10.965Z,13.27
2019-02-19T11:34:58.060Z,11.63
2019-02-19T11:37:28.394Z,8.83
2019-02-19T11:39:59.136Z,11.00
2019-02-19T11:42:29.501Z,9.33
2019-02-19T11:44:59.777Z,9.87
2019-02-19T11:47:30.072Z,7.77
2019-02-19T11:50:00.840Z,10.63
2019-02-19T11:52:31.729Z,8.70
2019-02-19T11:55:02.168Z,10.23
2019-02-19T11:57:32.459Z,15.27
2019-02-19T12:00:02.912Z,8.83
2019-02-19T12:02:42.692Z,8.93
2019-02-19T12:05:13.190Z,8.83
2019-02-19T12:07:43.962Z,10.33
2019-02-19T12:10:15.856Z,16.33
2019-02-19T12:12:46.122Z,8.60
2019-02-19T12:15:16.544Z,8.07
2019-02-19T12:17:46.841Z,11.50
2019-02-19T12:20:17.213Z,11.17
2019-02-19T12:22:47.942Z,9.50
2019-02-19T12:25:18.268Z,9.60
2019-02-19T12:27:48.539Z,11.63
2019-02-19T12:30:18.912Z,8.90
2019-02-19T12:32:49.193Z,9.83
2019-02-19T12:35:19.603Z,10.87
2019-02-19T12:37:50.585Z,10.97
2019-02-19T12:40:23.365Z,12.17
2019-02-19T12:42:53.761Z,12.27
2019-02-19T12:45:24.089Z,13.30
2019-02-19T12:47:55.649Z,9.03
2019-02-19T12:50:26.023Z,14.17
2019-02-19T12:52:56.570Z,10.43
2019-02-19T12:55:27.009Z,10.83
2019-02-19T12:57:58.221Z,10.37
2019-02-19T13:00:28.935Z,10.33
2019-02-19T13:02:59.296Z,9.10
2019-02-19T13:05:29.755Z,8.27
2019-02-19T13:08:04.211Z,8.03
2019-02-19T13:10:34.816Z,9.07
2019-02-19T13:13:05.277Z,10.47
2019-02-19T13:15:35.968Z,9.50
2019-02-19T13:18:06.519Z,9.53
2019-02-19T13:20:37.135Z,10.40
2019-02-19T13:23:07.414Z,11.47
2019-02-19T13:25:37.839Z,9.60
2019-02-19T13:28:10.735Z,11.43
2019-02-19T13:30:41.170Z,10.60
2019-02-19T13:33:16.027Z,8.03
2019-02-19T13:35:47.189Z,8.70
2019-02-19T13:38:17.891Z,8.27
2019-02-19T13:40:50.451Z,10.37
2019-02-19T13:43:20.772Z,7.47
2019-02-19T13:45:51.309Z,8.07
2019-02-19T13:48:22.319Z,8.43
2019-02-19T13:50:53.021Z,5.70
2019-02-19T13:53:48.704Z,7.73
2019-02-19T13:56:19.290Z,6.87
2019-02-19T13:58:52.964Z,7.27
2019-02-19T14:01:23.874Z,6.27
2019-02-19T14:03:54.112Z,7.93
2019-02-19T14:06:24.610Z,7.30
2019-02-19T14:08:54.886Z,7.30
2019-02-19T14:11:25.239Z,6.33
2019-02-19T14:14:18.600Z,8.03
2019-02-19T14:17:01.005Z,6.90
2019-02-19T14:19:46.312Z,7.00
2019-02-19T14:22:41.755Z,6.17
2019-02-19T14:25:32.241Z,6.63
2019-02-19T14:28:40.622Z,5.93
2019-02-19T14:31:42.006Z,4.90
2019-02-19T14:34:33.603Z,5.87
2019-02-19T14:37:40.730Z,5.40
2019-02-19T14:40:25.222Z,6.63
2019-02-19T14:43:18.493Z,6.90
2019-02-19T14:46:06.725Z,6.43
2019-02-19T14:48:55.421Z,7.70
2019-02-19T14:51:34.549Z,5.13
2019-02-19T14:54:26.916Z,5.97
2019-02-19T14:57:25.330Z,8.63
2019-02-19T15:00:17.712Z,7.10
2019-02-19T15:02:57.565Z,5.97
2019-02-19T15:06:04.621Z,8.70
2019-02-19T15:08:53.084Z,8.47
2019-02-19T15:11:42.137Z,7.13
2019-02-19T15:14:34.632Z,10.60
2019-02-19T15:17:22.871Z,9.73
2019-02-19T15:20:17.945Z,13.13
2019-02-19T15:23:06.904Z,8.93
2019-02-19T15:26:08.533Z,11.90
2019-02-19T15:28:58.303Z,9.83
2019-02-19T15:31:47.631Z,12.40
2019-02-19T15:34:36.866Z,15.73
2019-02-19T15:37:20.723Z,11.67
2019-02-19T15:40:13.147Z,11.40
2019-02-19T15:43:01.071Z,11.10
2019-02-19T15:45:44.953Z,10.73
2019-02-19T15:48:52.739Z,11.00
2019-02-19T15:51:33.806Z,12.40
2019-02-19T15:54:29.940Z,14.83
2019-02-19T15:57:15.045Z,11.43
2019-02-19T16:00:16.566Z,7.50
2019-02-19T16:03:00.759Z,8.23
2019-02-19T16:05:50.630Z,8.43
2019-02-19T16:11:47.548Z,7.17
2019-02-19T16:14:35.293Z,8.97
2019-02-19T16:17:30.601Z,8.13
2019-02-19T16:20:18.996Z,6.00
2019-02-19T16:23:08.292Z,6.93
2019-02-19T16:25:52.980Z,10.23
2019-02-19T16:28:48.352Z,7.80
2019-02-19T16:31:36.867Z,11.00
2019-02-19T16:34:29.482Z,8.03
2019-02-19T16:37:14.250Z,9.63
2019-02-19T16:39:59.360Z,8.77
2019-02-19T16:42:47.928Z,8.57
2019-02-19T16:45:30.246Z,11.07
2019-02-19T16:48:17.436Z,8.27
2019-02-19T16:51:06.738Z,12.17
2019-02-19T16:53:49.925Z,10.40
2019-02-19T16:56:30.478Z,10.83
2019-02-19T16:59:14.505Z,7.93
2019-02-19T17:02:05.538Z,7.57
2019-02-19T17:04:55.226Z,9.73
2019-02-19T17:07:39.562Z,10.03
2019-02-19T17:10:34.450Z,10.83
2019-02-19T17:13:39.224Z,10.33
2019-02-19T17:16:23.939Z,8.47
2019-02-19T17:19:17.048Z,8.17
2019-02-19T17:22:15.630Z,11.90
2019-02-19T17:24:59.985Z,12.93
2019-02-19T17:27:55.049Z,10.47
2019-02-19T17:30:53.633Z,10.77
2019-02-19T17:33:42.879Z,12.00
2019-02-19T17:36:31.996Z,8.80
2019-02-19T17:39:33.195Z,12.60
2019-02-19T17:42:14.407Z,12.80
2019-02-19T17:45:09.789Z,11.30
2019-02-19T17:48:08.265Z,9.13
2019-02-19T17:51:02.510Z,13.57
2019-02-19T17:53:42.332Z,11.43
2019-02-19T17:56:34.864Z,13.07
2019-02-19T17:59:17.292Z,12.73
2019-02-19T18:02:08.327Z,10.27
2019-02-19T18:05:08.576Z,12.53
2019-02-19T18:07:57.335Z,15.13
2019-02-19T18:11:04.646Z,15.73
2019-02-19T18:13:57.240Z,12.50
2019-02-19T18:16:52.670Z,10.43
2019-02-19T18:19:22.897Z,14.63
2019-02-19T18:21:53.102Z,12.43
2019-02-19T18:24:23.330Z,12.97
2019-02-19T18:26:53.555Z,13.67
2019-02-19T18:29:23.822Z,14.83
2019-02-19T18:31:54.073Z,13.00
2019-02-19T18:34:24.338Z,16.93
2019-02-19T18:36:54.582Z,15.97
2019-02-19T18:39:24.815Z,12.17
2019-02-19T18:41:55.058Z,14.07
2019-02-19T18:44:25.723Z,17.90
2019-02-19T18:46:56.233Z,19.90
2019-02-19T18:49:26.436Z,12.10
2019-02-19T18:51:56.672Z,14.40
2019-02-19T18:54:26.967Z,13.00
2019-02-19T18:56:57.287Z,15.00
2019-02-19T18:59:27.624Z,15.03
2019-02-19T19:01:57.938Z,15.70
2019-02-19T19:04:28.554Z,15.03
2019-02-19T19:06:58.782Z,19.40
2019-02-19T19:09:29.322Z,15.00
2019-02-19T19:11:59.566Z,16.77
2019-02-19T19:14:30.088Z,14.07
2019-02-19T19:17:00.926Z,14.37
2019-02-19T19:19:31.136Z,14.57
2019-02-19T19:22:01.377Z,13.47
2019-02-19T19:24:31.621Z,13.63
2019-02-19T19:27:01.869Z,14.67
2019-02-19T19:29:32.403Z,15.10
2019-02-19T19:32:02.894Z,15.00
2019-02-19T19:34:33.199Z,13.57
2019-02-19T19:37:03.763Z,13.10
2019-02-19T19:39:33.958Z,14.10
2019-02-19T19:42:04.298Z,19.97
2019-02-19T19:44:34.550Z,13.97
2019-02-19T19:47:05.171Z,15.80
2019-02-19T19:49:35.503Z,15.73
2019-02-19T19:52:05.736Z,14.03
2019-02-19T19:54:36.425Z,17.60
2019-02-19T19:57:06.951Z,14.73
2019-02-19T19:59:37.515Z,16.23
2019-02-19T20:02:08.579Z,14.90
2019-02-19T20:04:38.918Z,15.23
2019-02-19T20:07:09.493Z,13.43
2019-02-19T20:09:40.089Z,12.33
2019-02-19T20:12:10.610Z,14.57
2019-02-19T20:14:41.085Z,17.13
2019-02-19T20:17:11.329Z,13.13
2019-02-19T20:19:41.569Z,13.27
2019-02-19T20:22:12.396Z,15.30
2019-02-19T20:24:42.908Z,16.53
2019-02-19T20:27:13.355Z,12.90
2019-02-19T20:29:43.818Z,18.03
2019-02-19T20:32:14.172Z,13.93
2019-02-19T20:34:44.779Z,13.93
2019-02-19T20:37:15.049Z,12.63
2019-02-19T20:39:45.280Z,18.67
2019-02-19T20:42:15.832Z,15.33
2019-02-19T20:44:46.070Z,17.33
2019-02-19T20:47:16.284Z,20.57
2019-02-19T20:49:46.551Z,15.53
2019-02-19T20:52:16.653Z,17.53
2019-02-19T20:54:46.893Z,13.73
2019-02-19T20:57:17.204Z,16.90
2019-02-19T20:59:47.750Z,19.80
2019-02-19T21:02:18.007Z,16.13
2019-02-19T21:04:48.291Z,19.77
2019-02-19T21:07:21.604Z,19.03
2019-02-19T21:09:51.912Z,15.73
2019-02-19T21:12:22.154Z,14.47
2019-02-19T21:14:52.457Z,18.87
2019-02-19T21:17:22.666Z,15.93
2019-02-19T21:19:52.955Z,17.87
2019-02-19T21:22:23.150Z,18.47
2019-02-19T21:24:53.666Z,21.10
2019-02-19T21:27:24.243Z,15.60
2019-02-19T21:29:54.454Z,19.13
2019-02-19T21:32:24.639Z,17.80
2019-02-19T21:34:54.919Z,19.30
2019-02-19T21:37:25.111Z,18.77
2019-02-19T21:39:55.286Z,25.67
2019-02-19T21:42:25.459Z,20.90
2019-02-19T21:44:55.701Z,21.27
2019-02-19T21:47:25.977Z,21.93
2019-02-19T21:49:56.551Z,19.70
2019-02-19T21:52:28.245Z,18.47
2019-02-19T21:54:59.176Z,19.33
2019-02-19T21:57:29.395Z,18.67
2019-02-19T22:00:00.341Z,20.37
2019-02-19T22:02:31.037Z,21.73
2019-02-19T22:05:01.249Z,18.63
2019-02-19T22:07:31.934Z,17.87
2019-02-19T22:10:02.552Z,24.20
2019-02-19T22:12:32.726Z,19.17
2019-02-19T22:15:02.999Z,20.07
2019-02-19T22:17:33.157Z,21.43
2019-02-19T22:20:03.755Z,19.63
2019-02-19T22:22:34.680Z,17.13
2019-02-19T22:25:05.006Z,16.90
2019-02-19T22:27:35.303Z,14.90
2019-02-19T22:30:07.538Z,20.43
2019-02-19T22:32:38.203Z,20.20
2019-02-19T22:35:09.094Z,19.70
2019-02-19T22:37:39.363Z,15.43
2019-02-19T22:40:09.952Z,22.83
2019-02-19T22:42:40.224Z,19.23
2019-02-19T22:45:10.481Z,18.67
2019-02-19T22:47:40.769Z,18.40
2019-02-19T22:50:11.122Z,19.20
2019-02-19T22:52:41.366Z,22.87
2019-02-19T22:55:39.514Z,21.10
2019-02-19T22:58:10.011Z,16.43
2019-02-19T23:00:58.600Z,17.63
2019-02-19T23:03:28.826Z,16.00
2019-02-19T23:05:59.024Z,17.53
2019-02-19T23:08:29.264Z,17.50
2019-02-19T23:10:59.766Z,15.57
2019-02-19T23:13:30.523Z,19.53
2019-02-19T23:16:01.002Z,17.93
2019-02-19T23:18:31.225Z,18.30
2019-02-19T23:21:01.423Z,18.43
2019-02-19T23:23:31.626Z,19.07
2019-02-19T23:26:01.894Z,16.97
2019-02-19T23:28:32.441Z,12.97
2019-02-19T23:31:02.892Z,17.97
2019-02-19T23:33:33.029Z,17.23
2019-02-19T23:36:14.089Z,15.37
2019-02-19T23:38:44.615Z,14.07
2019-02-19T23:41:14.834Z,14.30
2019-02-19T23:43:45.383Z,14.17
2019-02-19T23:46:15.639Z,14.97
2019-02-19T23:48:46.417Z,15.27
2019-02-19T23:51:16.667Z,16.70
2019-02-19T23:53:46.988Z,13.93
2019-02-19T23:56:17.652Z,14.47
2019-02-19T23:58:48.133Z,13.80
